KHYA/HYA METAR and TAF weather

Enter ICAO airport designator
Station Type Date Time Source
KHYA METAR 2019/04/22 19:56 UTC NOAA

KHYA 221956Z 32005KT 3/4SM -RA BR OVC002 11/10 A2993 RMK AO2 RAB13E23B56 SLP137 P0000 T01110100


Station Type Date Time Source
KHYA Decoded METAR 2019/04/22 19:56 UTC NOAA

HYANNIS BARNSTABLE BOARDMN, MA, United States (KHYA) 41-40N 070-16W 22M
Apr 22, 2019 - 03:56 PM EDT / 2019.04.22 1956 UTC
Wind: from the NW (320 degrees) at 6 MPH (5 KT):0
Visibility: 3/4 mile(s):0
Sky conditions: overcast
Weather: light rain; mist
Precipitation last hour: A trace
Temperature: 52.0 F (11.1 C)
Dew Point: 50.0 F (10.0 C)
Relative Humidity: 92%
Pressure (altimeter): 29.93 in. Hg (1013 hPa)
ob: KHYA 221956Z 32005KT 3/4SM -RA BR OVC002 11/10 A2993 RMK AO2 RAB13E23B56 SLP137 P0000 T01110100
cycle: 20

Station Type Date Time Source
KHYA TAF 2019/04/22 18:22 UTC NOAA

TAF KHYA 221720Z 2218/2318 34008KT 1/2SM -RA FG OVC003
FM222300 02007KT 1/4SM FG VCSH OVC003
FM230300 04005KT 1/2SM FG OVC003
FM231300 36011G20KT 1/2SM FG OVC003
FM231700 36013G22KT P6SM OVC015

Example: see airport list